Ulan-Ude Airport (Mukhino)
UIUU : now visible

Airfield :











YOU CAN JOIN US ON...

 
LOGIN :

Register | Disclaimer

   EN    FR    IT 

 









Legend :    VFR   Marginal VFR   IFR   Intensive IFR   Very Intensive IFR
Visi :
Ceiling :
>= 8 km
>= 3000ft
5 to 8 km
1000 to 3000 ft
1500m to 5 km
500 to 1000 ft
800 to 1500m
200 to 500 ft
< 800m
< 200 ft
Symbols :   Thunderstorms  Fog  Heavy snow  Heavy precipitations  Wind > 20 kt







- Airport Elevation : 1690 ft
- IATA code : UUD


UIUU - Ulan-Ude (Mukhino)

CURRENT METAR :
  • 210630Z 35003MPS 310V040 9999 NSC 22/06 Q1014 R26/60D NOSIG RMK QFE716/0955

EXPIRED METARs :
  • 210600Z 24002MPS 9999 NSC 21/07 Q1014 R26/CLRD60 NOSIG RMK QFE716/0955
  • 210530Z 35003MPS 260V040 9999 NSC 22/08 Q1014 R26/CLRD60 NOSIG RMK QFE716/0955
  • 210500Z 11003MPS 9999 NSC 22/09 Q1014 R26/60D NOSIG RMK QFE716/0955
  • 210430Z 07003MPS 030V120 9999 NSC 21/09 Q1014 R08/CLRD60 NOSIG RMK QFE715/0954
  • 210400Z 08003MPS 050V130 9999 NSC 20/09 Q1014 R08/60D NOSIG RMK QFE715/0954

TAF TAF UIUU
Valid from the 21 at 06:00 until the 22 at 06:00 UTC


210500Z 2106/2206 07003G08MPS 9999 SCT040CB
TEMPO 2106/2115 32005MPS
No reported NOTAMs for that airfield.



MET'MAP, your aeronautical weather chart ! - Copyright ORBIFLY December 2007 - Disclaimer

ORBIFLY MET'MAP TEAM :

Programming & Development : Alexandra Zaïnal
Concept & Development : Baudouin d'Aumeries
Co-Development & Prog : Marc-Olivier Méhu
Technical & hardware support : Manuel Goepfert

Contact : metmap@orbifly.com




SOURCES & CREDITS :

   NOAA       Earth
Advisory